sensor_id;sensor_type;location;lat;lon;timestamp;temperature;humidity
53274;DHT22;39163;52.696;6.758;2022-08-19T07:56:02;26.80;99.90
53274;DHT22;39163;52.696;6.758;2022-08-19T07:59:03;27.00;99.90
53274;DHT22;39163;52.696;6.758;2022-08-19T08:05:00;27.40;99.90
53274;DHT22;39163;52.696;6.758;2022-08-19T08:37:10;28.10;99.90
53274;DHT22;39163;52.696;6.758;2022-08-19T08:43:38;27.50;99.90
53274;DHT22;39163;52.696;6.758;2022-08-19T10:45:29;29.20;95.90
53274;DHT22;39163;52.696;6.758;2022-08-19T12:26:42;32.00;88.70
53274;DHT22;39163;52.696;6.758;2022-08-19T12:38:08;32.20;86.10
53274;DHT22;39163;52.696;6.758;2022-08-19T13:00:30;31.80;83.20
53274;DHT22;39163;52.696;6.758;2022-08-19T13:03:51;31.80;82.90
53274;DHT22;39163;52.696;6.758;2022-08-19T13:06:37;31.80;82.70
53274;DHT22;39163;52.696;6.758;2022-08-19T13:09:06;31.40;82.70
53274;DHT22;39163;52.696;6.758;2022-08-19T13:11:52;31.10;82.70
53274;DHT22;39163;52.696;6.758;2022-08-19T13:15:21;30.90;83.30
53274;DHT22;39163;52.696;6.758;2022-08-19T13:18:53;30.90;84.30
53274;DHT22;39163;52.696;6.758;2022-08-19T13:25:39;30.60;84.80
53274;DHT22;39163;52.696;6.758;2022-08-19T13:31:57;30.70;85.10
53274;DHT22;39163;52.696;6.758;2022-08-19T14:55:47;31.60;78.10
53274;DHT22;39163;52.696;6.758;2022-08-19T15:02:52;31.40;79.80
53274;DHT22;39163;52.696;6.758;2022-08-19T15:05:37;31.50;80.30
53274;DHT22;39163;52.696;6.758;2022-08-19T15:08:20;31.70;80.40
53274;DHT22;39163;52.696;6.758;2022-08-19T15:17:22;30.70;78.80
53274;DHT22;39163;52.696;6.758;2022-08-19T15:20:21;30.50;80.30
53274;DHT22;39163;52.696;6.758;2022-08-19T15:23:02;30.00;82.00
53274;DHT22;39163;52.696;6.758;2022-08-19T15:25:51;29.70;84.10
53274;DHT22;39163;52.696;6.758;2022-08-19T15:32:00;29.20;87.50
53274;DHT22;39163;52.696;6.758;2022-08-19T15:34:35;28.90;88.30
53274;DHT22;39163;52.696;6.758;2022-08-19T15:37:29;28.80;89.40
53274;DHT22;39163;52.696;6.758;2022-08-19T16:35:49;26.50;99.90
53274;DHT22;39163;52.696;6.758;2022-08-19T16:56:02;25.90;99.90
53274;DHT22;39163;52.696;6.758;2022-08-19T16:58:39;25.80;99.90
53274;DHT22;39163;52.696;6.758;2022-08-19T17:01:07;25.70;99.90
53274;DHT22;39163;52.696;6.758;2022-08-19T17:03:36;25.70;99.90
53274;DHT22;39163;52.696;6.758;2022-08-19T17:06:25;25.60;99.90
53274;DHT22;39163;52.696;6.758;2022-08-19T17:08:56;25.60;99.90
53274;DHT22;39163;52.696;6.758;2022-08-19T17:11:25;25.40;99.90
53274;DHT22;39163;52.696;6.758;2022-08-19T17:13:51;25.40;99.90
53274;DHT22;39163;52.696;6.758;2022-08-19T17:16:26;25.40;99.90
53274;DHT22;39163;52.696;6.758;2022-08-19T17:19:07;25.30;99.90
53274;DHT22;39163;52.696;6.758;2022-08-19T17:22:01;25.20;99.90
53274;DHT22;39163;52.696;6.758;2022-08-19T17:24:32;25.20;99.90
53274;DHT22;39163;52.696;6.758;2022-08-19T17:27:07;25.20;99.90
53274;DHT22;39163;52.696;6.758;2022-08-19T17:29:34;25.10;99.90
53274;DHT22;39163;52.696;6.758;2022-08-19T17:32:00;25.00;99.90
53274;DHT22;39163;52.696;6.758;2022-08-19T17:34:34;24.90;99.90
53274;DHT22;39163;52.696;6.758;2022-08-19T17:37:00;24.80;99.90
53274;DHT22;39163;52.696;6.758;2022-08-19T17:39:26;24.60;99.90
53274;DHT22;39163;52.696;6.758;2022-08-19T17:41:52;24.60;99.90
53274;DHT22;39163;52.696;6.758;2022-08-19T17:44:18;24.50;99.90
53274;DHT22;39163;52.696;6.758;2022-08-19T17:46:44;24.50;99.90
53274;DHT22;39163;52.696;6.758;2022-08-19T17:49:11;24.40;99.90
53274;DHT22;39163;52.696;6.758;2022-08-19T17:51:46;24.30;99.90
53274;DHT22;39163;52.696;6.758;2022-08-19T17:54:16;24.30;99.90
53274;DHT22;39163;52.696;6.758;2022-08-19T17:56:43;24.30;99.90
53274;DHT22;39163;52.696;6.758;2022-08-19T17:59:11;24.20;99.90
53274;DHT22;39163;52.696;6.758;2022-08-19T18:01:37;24.20;99.90
53274;DHT22;39163;52.696;6.758;2022-08-19T18:04:03;24.20;99.90
53274;DHT22;39163;52.696;6.758;2022-08-19T18:06:30;24.20;99.90
53274;DHT22;39163;52.696;6.758;2022-08-19T18:08:56;24.10;99.90
53274;DHT22;39163;52.696;6.758;2022-08-19T18:11:22;24.10;99.90
53274;DHT22;39163;52.696;6.758;2022-08-19T18:13:48;24.10;99.90
53274;DHT22;39163;52.696;6.758;2022-08-19T18:16:16;24.10;99.90
53274;DHT22;39163;52.696;6.758;2022-08-19T18:18:48;24.10;99.90
53274;DHT22;39163;52.696;6.758;2022-08-19T18:21:15;24.00;99.90
53274;DHT22;39163;52.696;6.758;2022-08-19T18:23:41;24.00;99.90
53274;DHT22;39163;52.696;6.758;2022-08-19T18:26:06;24.00;99.90
53274;DHT22;39163;52.696;6.758;2022-08-19T18:28:32;23.90;99.90
53274;DHT22;39163;52.696;6.758;2022-08-19T18:30:58;23.90;99.90
53274;DHT22;39163;52.696;6.758;2022-08-19T18:33:24;23.90;99.90
53274;DHT22;39163;52.696;6.758;2022-08-19T18:35:50;23.90;99.90
53274;DHT22;39163;52.696;6.758;2022-08-19T18:38:19;23.90;99.90
53274;DHT22;39163;52.696;6.758;2022-08-19T18:41:04;23.80;99.90
53274;DHT22;39163;52.696;6.758;2022-08-19T18:43:49;23.80;99.90
53274;DHT22;39163;52.696;6.758;2022-08-19T18:46:33;23.80;99.90
53274;DHT22;39163;52.696;6.758;2022-08-19T18:49:24;23.80;99.90
53274;DHT22;39163;52.696;6.758;2022-08-19T18:51:50;23.70;99.90
53274;DHT22;39163;52.696;6.758;2022-08-19T18:54:17;23.70;99.90
53274;DHT22;39163;52.696;6.758;2022-08-19T18:56:44;23.60;99.90
53274;DHT22;39163;52.696;6.758;2022-08-19T18:59:11;23.50;99.90
53274;DHT22;39163;52.696;6.758;2022-08-19T19:01:42;23.50;99.90
53274;DHT22;39163;52.696;6.758;2022-08-19T19:04:12;23.50;99.90
53274;DHT22;39163;52.696;6.758;2022-08-19T19:06:42;23.40;99.90
53274;DHT22;39163;52.696;6.758;2022-08-19T19:09:14;23.30;99.90
53274;DHT22;39163;52.696;6.758;2022-08-19T19:11:45;23.20;99.90
53274;DHT22;39163;52.696;6.758;2022-08-19T19:14:15;23.20;99.90
53274;DHT22;39163;52.696;6.758;2022-08-19T19:16:42;23.10;99.90
53274;DHT22;39163;52.696;6.758;2022-08-19T19:19:12;22.90;99.90
53274;DHT22;39163;52.696;6.758;2022-08-19T19:21:45;22.80;99.90
53274;DHT22;39163;52.696;6.758;2022-08-19T19:24:21;22.70;99.90
53274;DHT22;39163;52.696;6.758;2022-08-19T19:26:49;22.60;99.90
53274;DHT22;39163;52.696;6.758;2022-08-19T19:29:16;22.60;99.90
53274;DHT22;39163;52.696;6.758;2022-08-19T19:31:43;22.60;99.90
53274;DHT22;39163;52.696;6.758;2022-08-19T19:34:10;22.50;99.90
53274;DHT22;39163;52.696;6.758;2022-08-19T19:36:36;22.50;99.90
53274;DHT22;39163;52.696;6.758;2022-08-19T19:39:03;22.40;99.90
53274;DHT22;39163;52.696;6.758;2022-08-19T19:41:32;22.40;99.90
53274;DHT22;39163;52.696;6.758;2022-08-19T19:44:00;22.40;99.90
53274;DHT22;39163;52.696;6.758;2022-08-19T19:46:27;22.30;99.90
53274;DHT22;39163;52.696;6.758;2022-08-19T19:48:53;22.30;99.90
53274;DHT22;39163;52.696;6.758;2022-08-19T19:51:20;22.20;99.90
53274;DHT22;39163;52.696;6.758;2022-08-19T19:53:46;22.20;99.90
53274;DHT22;39163;52.696;6.758;2022-08-19T19:56:19;22.20;99.90
53274;DHT22;39163;52.696;6.758;2022-08-19T19:58:47;22.20;99.90
53274;DHT22;39163;52.696;6.758;2022-08-19T20:01:19;22.10;99.90
53274;DHT22;39163;52.696;6.758;2022-08-19T20:03:45;22.10;99.90
53274;DHT22;39163;52.696;6.758;2022-08-19T20:06:13;22.00;99.90
53274;DHT22;39163;52.696;6.758;2022-08-19T20:08:38;21.90;99.90
53274;DHT22;39163;52.696;6.758;2022-08-19T20:11:45;21.80;99.90
53274;DHT22;39163;52.696;6.758;2022-08-19T20:16:46;21.80;99.90
53274;DHT22;39163;52.696;6.758;2022-08-19T20:19:14;21.80;99.90
53274;DHT22;39163;52.696;6.758;2022-08-19T20:21:43;21.80;99.90
53274;DHT22;39163;52.696;6.758;2022-08-19T20:24:21;21.80;99.90
53274;DHT22;39163;52.696;6.758;2022-08-19T20:26:47;21.80;99.90
53274;DHT22;39163;52.696;6.758;2022-08-19T20:29:15;21.80;99.90
53274;DHT22;39163;52.696;6.758;2022-08-19T20:31:43;21.70;99.90
53274;DHT22;39163;52.696;6.758;2022-08-19T20:34:09;21.70;99.90
53274;DHT22;39163;52.696;6.758;2022-08-19T20:36:35;21.70;99.90
53274;DHT22;39163;52.696;6.758;2022-08-19T20:39:03;21.60;99.90
53274;DHT22;39163;52.696;6.758;2022-08-19T20:41:29;21.60;99.90
53274;DHT22;39163;52.696;6.758;2022-08-19T20:43:55;21.60;99.90
53274;DHT22;39163;52.696;6.758;2022-08-19T20:46:21;21.50;99.90
53274;DHT22;39163;52.696;6.758;2022-08-19T20:48:47;21.50;99.90
53274;DHT22;39163;52.696;6.758;2022-08-19T20:51:13;21.50;99.90
53274;DHT22;39163;52.696;6.758;2022-08-19T20:53:40;21.50;99.90
53274;DHT22;39163;52.696;6.758;2022-08-19T20:56:06;21.40;99.90
53274;DHT22;39163;52.696;6.758;2022-08-19T20:58:32;21.30;99.90
53274;DHT22;39163;52.696;6.758;2022-08-19T21:01:00;21.30;99.90
53274;DHT22;39163;52.696;6.758;2022-08-19T21:03:29;21.30;99.90
53274;DHT22;39163;52.696;6.758;2022-08-19T21:05:55;21.30;99.90
53274;DHT22;39163;52.696;6.758;2022-08-19T21:08:22;21.20;99.90
53274;DHT22;39163;52.696;6.758;2022-08-19T21:10:49;21.20;99.90
53274;DHT22;39163;52.696;6.758;2022-08-19T21:13:17;21.20;99.90
53274;DHT22;39163;52.696;6.758;2022-08-19T21:15:43;21.20;99.90
53274;DHT22;39163;52.696;6.758;2022-08-19T21:18:10;21.20;99.90
53274;DHT22;39163;52.696;6.758;2022-08-19T21:20:37;21.20;99.90
53274;DHT22;39163;52.696;6.758;2022-08-19T21:23:09;21.10;99.90
53274;DHT22;39163;52.696;6.758;2022-08-19T21:25:35;21.10;99.90
53274;DHT22;39163;52.696;6.758;2022-08-19T21:28:02;21.20;99.90
53274;DHT22;39163;52.696;6.758;2022-08-19T21:30:28;21.10;99.90
53274;DHT22;39163;52.696;6.758;2022-08-19T21:32:54;21.10;99.90
53274;DHT22;39163;52.696;6.758;2022-08-19T21:35:21;21.10;99.90
53274;DHT22;39163;52.696;6.758;2022-08-19T21:37:48;21.10;99.90
53274;DHT22;39163;52.696;6.758;2022-08-19T21:40:15;21.10;99.90
53274;DHT22;39163;52.696;6.758;2022-08-19T21:42:41;21.00;99.90
53274;DHT22;39163;52.696;6.758;2022-08-19T21:45:07;21.00;99.90
53274;DHT22;39163;52.696;6.758;2022-08-19T21:47:35;21.00;99.90
53274;DHT22;39163;52.696;6.758;2022-08-19T21:50:02;21.00;99.90
53274;DHT22;39163;52.696;6.758;2022-08-19T21:52:28;21.00;99.90
53274;DHT22;39163;52.696;6.758;2022-08-19T21:54:59;21.10;99.90
53274;DHT22;39163;52.696;6.758;2022-08-19T21:57:40;21.00;99.90
53274;DHT22;39163;52.696;6.758;2022-08-19T22:00:57;21.00;99.90
53274;DHT22;39163;52.696;6.758;2022-08-19T22:03:57;21.00;99.90
53274;DHT22;39163;52.696;6.758;2022-08-19T22:06:56;21.10;99.90
53274;DHT22;39163;52.696;6.758;2022-08-19T22:09:30;21.00;99.90
53274;DHT22;39163;52.696;6.758;2022-08-19T22:12:01;21.00;99.90
53274;DHT22;39163;52.696;6.758;2022-08-19T22:14:34;21.00;99.90
53274;DHT22;39163;52.696;6.758;2022-08-19T22:17:00;20.90;99.90
53274;DHT22;39163;52.696;6.758;2022-08-19T22:19:27;20.80;99.90
53274;DHT22;39163;52.696;6.758;2022-08-19T22:21:54;20.70;99.90
53274;DHT22;39163;52.696;6.758;2022-08-19T22:24:20;20.70;99.90
53274;DHT22;39163;52.696;6.758;2022-08-19T22:26:46;20.60;99.90
53274;DHT22;39163;52.696;6.758;2022-08-19T22:29:12;20.60;99.90
53274;DHT22;39163;52.696;6.758;2022-08-19T22:31:37;20.60;99.90
53274;DHT22;39163;52.696;6.758;2022-08-19T22:34:04;20.60;99.90
53274;DHT22;39163;52.696;6.758;2022-08-19T22:36:42;20.60;99.90
53274;DHT22;39163;52.696;6.758;2022-08-19T22:44:22;20.50;99.90
53274;DHT22;39163;52.696;6.758;2022-08-19T22:46:48;20.50;99.90
53274;DHT22;39163;52.696;6.758;2022-08-19T22:49:14;20.50;99.90
53274;DHT22;39163;52.696;6.758;2022-08-19T22:51:39;20.50;99.90
53274;DHT22;39163;52.696;6.758;2022-08-19T22:54:23;20.50;99.90
53274;DHT22;39163;52.696;6.758;2022-08-19T22:56:49;20.50;99.90
53274;DHT22;39163;52.696;6.758;2022-08-19T22:59:16;20.50;99.90
53274;DHT22;39163;52.696;6.758;2022-08-19T23:01:42;20.50;99.90
53274;DHT22;39163;52.696;6.758;2022-08-19T23:04:08;20.40;99.90
53274;DHT22;39163;52.696;6.758;2022-08-19T23:06:34;20.40;99.90
53274;DHT22;39163;52.696;6.758;2022-08-19T23:09:04;20.40;99.90
53274;DHT22;39163;52.696;6.758;2022-08-19T23:11:32;20.40;99.90
53274;DHT22;39163;52.696;6.758;2022-08-19T23:14:03;20.30;99.90
53274;DHT22;39163;52.696;6.758;2022-08-19T23:16:38;20.30;99.90
53274;DHT22;39163;52.696;6.758;2022-08-19T23:19:18;20.40;99.90
